Time,TemperatureF,DewpointF,PressureIn,WindDirection,WindDirectionDegrees,WindSpeedMPH,WindSpeedGustMPH,Humidity,HourlyPrecipIn,Conditions,Clouds,dailyrainin,SoftwareType,DateUTC
2013-01-24 00:02:00,46.0,39.0,30.24,SW,222,0.0,-999.0,75,-99.99,,,0.00,,2013-01-24 06:02:00,
2013-01-24 00:12:00,46.0,39.0,30.24,SW,222,0.0,-999.0,75,-99.99,,,0.00,,2013-01-24 06:12:00,
2013-01-24 00:22:00,46.0,39.0,30.24,SW,222,0.0,-999.0,76,-99.99,,,0.00,,2013-01-24 06:22:00,
2013-01-24 00:32:00,46.0,39.0,30.24,SW,222,0.0,-999.0,76,-99.99,,,0.00,,2013-01-24 06:32:00,
2013-01-24 00:42:00,46.0,39.0,30.24,SW,222,0.0,-999.0,76,-99.99,,,0.00,,2013-01-24 06:42:00,
2013-01-24 00:52:00,46.0,39.0,30.24,SW,222,0.0,-999.0,75,-99.99,,,0.00,,2013-01-24 06:52:00,
2013-01-24 01:02:00,46.0,39.0,30.24,SW,222,0.0,-999.0,76,-99.99,,,0.00,,2013-01-24 07:02:00,
2013-01-24 01:12:00,46.0,39.0,30.24,SW,222,0.0,-999.0,76,-99.99,,,0.00,,2013-01-24 07:12:00,
2013-01-24 01:22:00,46.0,39.0,30.24,SW,222,0.0,-999.0,77,-99.99,,,0.00,,2013-01-24 07:22:00,
2013-01-24 01:33:00,45.0,39.0,30.23,SW,222,0.0,-999.0,78,-99.99,,,0.00,,2013-01-24 07:33:00,
2013-01-24 01:42:00,45.0,39.0,30.23,SW,222,0.0,-999.0,78,-99.99,,,0.00,,2013-01-24 07:42:00,
2013-01-24 01:53:00,45.0,39.0,30.24,SW,222,0.0,-999.0,79,-99.99,,,0.00,,2013-01-24 07:53:00,
2013-01-24 02:02:00,45.0,39.0,30.24,SW,222,0.0,-999.0,79,-99.99,,,0.00,,2013-01-24 08:02:00,
2013-01-24 02:12:00,45.0,39.0,30.24,SW,222,0.0,-999.0,79,-99.99,,,0.00,,2013-01-24 08:12:00,
2013-01-24 02:22:00,44.0,39.0,30.24,SW,222,0.0,-999.0,81,-99.99,,,0.00,,2013-01-24 08:22:00,
2013-01-24 02:33:00,43.0,38.0,30.24,SW,222,0.0,-999.0,83,-99.99,,,0.00,,2013-01-24 08:33:00,
2013-01-24 02:42:00,43.0,38.0,30.24,SW,222,0.0,-999.0,83,-99.99,,,0.00,,2013-01-24 08:42:00,
2013-01-24 02:53:00,43.0,39.0,30.25,SW,222,0.0,-999.0,85,-99.99,,,0.00,,2013-01-24 08:53:00,
2013-01-24 03:02:00,44.0,39.0,30.25,SW,222,0.0,-999.0,84,-99.99,,,0.00,,2013-01-24 09:02:00,
2013-01-24 03:12:00,44.0,39.0,30.25,SW,222,0.0,-999.0,84,-99.99,,,0.00,,2013-01-24 09:12:00,
2013-01-24 03:23:00,44.0,39.0,30.25,SW,222,0.0,-999.0,83,-99.99,,,0.00,,2013-01-24 09:23:00,
2013-01-24 03:33:00,45.0,40.0,30.25,SW,222,0.0,-999.0,83,-99.99,,,0.00,,2013-01-24 09:33:00,
2013-01-24 03:43:00,45.0,40.0,30.25,SW,222,0.0,-999.0,83,-99.99,,,0.00,,2013-01-24 09:43:00,
2013-01-24 03:52:00,44.0,39.0,30.25,SW,222,0.0,-999.0,84,-99.99,,,0.00,,2013-01-24 09:52:00,
2013-01-24 04:03:00,45.0,41.0,30.25,SW,222,0.0,-999.0,85,-99.99,,,0.00,,2013-01-24 10:03:00,
2013-01-24 04:12:00,45.0,41.0,30.25,SW,222,0.0,-999.0,85,-99.99,,,0.00,,2013-01-24 10:12:00,
2013-01-24 04:22:00,46.0,41.0,30.25,NW,316,1.0,-999.0,82,-99.99,,,0.00,,2013-01-24 10:22:00,
2013-01-24 04:33:00,46.0,40.0,30.24,NNW,341,1.0,-999.0,78,-99.99,,,0.00,,2013-01-24 10:33:00,
2013-01-24 04:43:00,46.0,40.0,30.24,NNW,341,1.0,-999.0,78,-99.99,,,0.00,,2013-01-24 10:43:00,
2013-01-24 04:52:00,47.0,40.0,30.25,NW,322,2.0,-999.0,76,-99.99,,,0.00,,2013-01-24 10:52:00,
2013-01-24 05:02:00,47.0,39.0,30.26,WNW,297,2.0,-999.0,74,-99.99,,,0.00,,2013-01-24 11:02:00,
2013-01-24 05:12:00,47.0,39.0,30.26,WNW,297,2.0,-999.0,74,-99.99,,,0.00,,2013-01-24 11:12:00,
2013-01-24 05:23:00,47.0,39.0,30.26,WNW,297,2.0,-999.0,74,-99.99,,,0.00,,2013-01-24 11:23:00,
2013-01-24 05:33:00,46.0,38.0,30.28,NNW,346,5.0,-999.0,74,-99.99,,,0.00,,2013-01-24 11:33:00,
2013-01-24 05:43:00,46.0,38.0,30.28,NNW,346,5.0,-999.0,74,-99.99,,,0.00,,2013-01-24 11:43:00,
2013-01-24 05:53:00,46.0,38.0,30.29,NNE,33,3.0,-999.0,74,-99.99,,,0.00,,2013-01-24 11:53:00,
2013-01-24 06:03:00,44.0,35.0,30.29,North,350,7.0,-999.0,71,-99.99,,,0.00,,2013-01-24 12:03:00,
2013-01-24 06:12:00,44.0,35.0,30.29,North,350,7.0,-999.0,71,-99.99,,,0.00,,2013-01-24 12:12:00,
2013-01-24 06:22:00,44.0,36.0,30.30,NW,318,5.0,-999.0,73,-99.99,,,0.00,,2013-01-24 12:22:00,
2013-01-24 06:33:00,42.0,33.0,30.32,NNE,16,3.0,-999.0,71,-99.99,,,0.00,,2013-01-24 12:33:00,
2013-01-24 06:42:00,42.0,33.0,30.32,NNE,16,3.0,-999.0,71,-99.99,,,0.00,,2013-01-24 12:42:00,
2013-01-24 06:53:00,42.0,33.0,30.32,North,8,6.0,-999.0,70,-99.99,,,0.00,,2013-01-24 12:53:00,
2013-01-24 07:03:00,41.0,31.0,30.33,North,359,6.0,-999.0,66,-99.99,,,0.00,,2013-01-24 13:03:00,
2013-01-24 07:13:00,41.0,31.0,30.33,North,359,6.0,-999.0,66,-99.99,,,0.00,,2013-01-24 13:13:00,
2013-01-24 07:23:00,40.0,30.0,30.34,North,359,5.0,-999.0,67,-99.99,,,0.00,,2013-01-24 13:23:00,
2013-01-24 07:33:00,39.0,29.0,30.35,NNE,19,5.0,-999.0,67,-99.99,,,0.00,,2013-01-24 13:33:00,
2013-01-24 07:42:00,39.0,29.0,30.35,NNE,19,5.0,-999.0,67,-99.99,,,0.00,,2013-01-24 13:42:00,
2013-01-24 07:53:00,39.0,29.0,30.36,North,354,6.0,-999.0,68,-99.99,,,0.00,,2013-01-24 13:53:00,
2013-01-24 08:02:00,39.0,29.0,30.37,North,4,8.0,-999.0,67,-99.99,,,0.00,,2013-01-24 14:02:00,
2013-01-24 08:12:00,39.0,29.0,30.37,North,4,8.0,-999.0,67,-99.99,,,0.00,,2013-01-24 14:12:00,
2013-01-24 08:23:00,39.0,27.0,30.39,NW,305,8.0,-999.0,63,-99.99,,,0.00,,2013-01-24 14:23:00,
2013-01-24 08:33:00,38.0,25.0,30.39,North,359,6.0,-999.0,58,-99.99,,,0.00,,2013-01-24 14:33:00,
2013-01-24 08:43:00,38.0,25.0,30.39,North,359,6.0,-999.0,58,-99.99,,,0.00,,2013-01-24 14:43:00,
2013-01-24 08:54:00,38.0,25.0,30.41,North,359,7.0,-999.0,58,-99.99,,,0.00,,2013-01-24 14:54:00,
2013-01-24 09:03:00,39.0,25.0,30.42,NNE,14,5.0,-999.0,56,-99.99,,,0.00,,2013-01-24 15:03:00,
2013-01-24 09:12:00,39.0,25.0,30.42,NNE,14,5.0,-999.0,56,-99.99,,,0.00,,2013-01-24 15:12:00,
2013-01-24 09:23:00,39.0,23.0,30.42,NNW,333,6.0,-999.0,53,-99.99,,,0.00,,2013-01-24 15:23:00,
2013-01-24 09:33:00,39.0,23.0,30.42,NNW,333,6.0,-999.0,53,-99.99,,,0.00,,2013-01-24 15:33:00,
2013-01-24 09:43:00,39.0,24.0,30.42,North,359,6.0,-999.0,54,-99.99,,,0.00,,2013-01-24 15:43:00,
2013-01-24 09:53:00,39.0,23.0,30.42,North,4,6.0,-999.0,52,-99.99,,,0.00,,2013-01-24 15:53:00,
2013-01-24 10:03:00,40.0,23.0,30.41,NNE,18,5.0,-999.0,51,-99.99,,,0.00,,2013-01-24 16:03:00,
2013-01-24 10:12:00,40.0,23.0,30.41,NNE,18,5.0,-999.0,51,-99.99,,,0.00,,2013-01-24 16:12:00,
2013-01-24 10:23:00,40.0,22.0,30.43,North,354,7.0,-999.0,49,-99.99,,,0.00,,2013-01-24 16:23:00,
2013-01-24 10:33:00,40.0,23.0,30.42,NW,314,5.0,-999.0,50,-99.99,,,0.00,,2013-01-24 16:33:00,
2013-01-24 10:42:00,40.0,23.0,30.42,NW,314,5.0,-999.0,50,-99.99,,,0.00,,2013-01-24 16:42:00,
2013-01-24 11:02:00,41.0,22.0,30.43,West,271,5.0,-999.0,47,-99.99,,,0.00,,2013-01-24 17:02:00,
2013-01-24 11:12:00,41.0,22.0,30.43,West,271,5.0,-999.0,47,-99.99,,,0.00,,2013-01-24 17:12:00,
2013-01-24 11:22:00,41.0,22.0,30.43,West,271,5.0,-999.0,47,-99.99,,,0.00,,2013-01-24 17:22:00,
2013-01-24 11:32:00,41.0,23.0,30.43,North,4,5.0,-999.0,49,-99.99,,,0.00,,2013-01-24 17:32:00,
2013-01-24 11:42:00,41.0,23.0,30.43,North,4,5.0,-999.0,49,-99.99,,,0.00,,2013-01-24 17:42:00,
2013-01-24 11:52:00,41.0,22.0,30.41,NNW,330,9.0,-999.0,46,-99.99,,,0.00,,2013-01-24 17:52:00,
2013-01-24 12:02:00,42.0,21.0,30.41,North,9,6.0,-999.0,43,-99.99,,,0.00,,2013-01-24 18:02:00,
2013-01-24 12:12:00,43.0,22.0,30.41,North,4,6.0,-999.0,42,-99.99,,,0.00,,2013-01-24 18:12:00,
2013-01-24 12:22:00,43.0,22.0,30.41,North,4,6.0,-999.0,42,-99.99,,,0.00,,2013-01-24 18:22:00,
2013-01-24 12:33:00,43.0,22.0,30.41,NNW,339,6.0,-999.0,42,-99.99,,,0.00,,2013-01-24 18:33:00,
2013-01-24 12:42:00,43.0,22.0,30.41,NNW,339,6.0,-999.0,42,-99.99,,,0.00,,2013-01-24 18:42:00,
2013-01-24 12:53:00,43.0,20.0,30.41,North,4,6.0,-999.0,39,-99.99,,,0.00,,2013-01-24 18:53:00,
2013-01-24 13:02:00,43.0,20.0,30.40,NW,314,6.0,-999.0,39,-99.99,,,0.00,,2013-01-24 19:02:00,
2013-01-24 13:12:00,43.0,20.0,30.40,NW,314,6.0,-999.0,39,-99.99,,,0.00,,2013-01-24 19:12:00,
2013-01-24 13:22:00,43.0,20.0,30.40,NE,44,7.0,-999.0,39,-99.99,,,0.00,,2013-01-24 19:22:00,
2013-01-24 13:32:00,44.0,20.0,30.39,NE,39,5.0,-999.0,38,-99.99,,,0.00,,2013-01-24 19:32:00,
2013-01-24 13:42:00,44.0,21.0,30.37,NNW,339,4.0,-999.0,40,-99.99,,,0.00,,2013-01-24 19:42:00,
2013-01-24 13:52:00,44.0,21.0,30.37,NNW,339,4.0,-999.0,40,-99.99,,,0.00,,2013-01-24 19:52:00,
2013-01-24 14:02:00,43.0,20.0,30.38,North,4,5.0,-999.0,40,-99.99,,,0.00,,2013-01-24 20:02:00,
2013-01-24 14:11:00,43.0,20.0,30.38,North,4,5.0,-999.0,40,-99.99,,,0.00,,2013-01-24 20:11:00,
2013-01-24 14:22:00,43.0,20.0,30.38,NNW,328,5.0,-999.0,39,-99.99,,,0.00,,2013-01-24 20:22:00,
2013-01-24 14:32:00,43.0,20.0,30.38,NNW,332,6.0,-999.0,40,-99.99,,,0.00,,2013-01-24 20:32:00,
2013-01-24 14:42:00,43.0,20.0,30.38,NNW,332,6.0,-999.0,40,-99.99,,,0.00,,2013-01-24 20:42:00,
2013-01-24 14:52:00,44.0,21.0,30.37,WNW,297,4.0,-999.0,40,-99.99,,,0.00,,2013-01-24 20:52:00,
2013-01-24 15:02:00,44.0,20.0,30.37,NNW,334,6.0,-999.0,38,-99.99,,,0.00,,2013-01-24 21:02:00,
2013-01-24 15:12:00,44.0,20.0,30.37,NNW,334,6.0,-999.0,38,-99.99,,,0.00,,2013-01-24 21:12:00,
2013-01-24 15:22:00,45.0,21.0,30.38,North,4,4.0,-999.0,38,-99.99,,,0.00,,2013-01-24 21:22:00,
2013-01-24 15:33:00,44.0,19.0,30.38,NW,317,5.0,-999.0,37,-99.99,,,0.00,,2013-01-24 21:33:00,
2013-01-24 15:43:00,44.0,19.0,30.38,NW,317,5.0,-999.0,37,-99.99,,,0.00,,2013-01-24 21:43:00,
2013-01-24 15:52:00,45.0,20.0,30.37,NNW,337,3.0,-999.0,37,-99.99,,,0.00,,2013-01-24 21:52:00,
2013-01-24 16:03:00,44.0,19.0,30.37,NNW,333,4.0,-999.0,37,-99.99,,,0.00,,2013-01-24 22:03:00,
2013-01-24 16:12:00,44.0,19.0,30.37,NNW,333,4.0,-999.0,37,-99.99,,,0.00,,2013-01-24 22:12:00,
2013-01-24 16:22:00,44.0,21.0,30.37,NNE,20,4.0,-999.0,39,-99.99,,,0.00,,2013-01-24 22:22:00,
2013-01-24 16:32:00,43.0,20.0,30.36,NNE,22,3.0,-999.0,40,-99.99,,,0.00,,2013-01-24 22:32:00,
2013-01-24 16:42:00,43.0,20.0,30.36,NNE,22,3.0,-999.0,40,-99.99,,,0.00,,2013-01-24 22:42:00,
2013-01-24 16:53:00,43.0,21.0,30.37,NNE,25,4.0,-999.0,41,-99.99,,,0.00,,2013-01-24 22:53:00,
2013-01-24 17:02:00,42.0,20.0,30.37,NE,41,6.0,-999.0,41,-99.99,,,0.00,,2013-01-24 23:02:00,
2013-01-24 17:12:00,42.0,20.0,30.37,NE,41,6.0,-999.0,41,-99.99,,,0.00,,2013-01-24 23:12:00,
2013-01-24 17:22:00,42.0,20.0,30.37,NE,41,5.0,-999.0,41,-99.99,,,0.00,,2013-01-24 23:22:00,
2013-01-24 17:32:00,41.0,20.0,30.37,North,359,3.0,-999.0,43,-99.99,,,0.00,,2013-01-24 23:32:00,
2013-01-24 17:42:00,41.0,20.0,30.37,North,359,3.0,-999.0,43,-99.99,,,0.00,,2013-01-24 23:42:00,
2013-01-24 17:52:00,41.0,20.0,30.37,North,359,4.0,-999.0,43,-99.99,,,0.00,,2013-01-24 23:52:00,
2013-01-24 18:02:00,40.0,20.0,30.38,NNW,347,3.0,-999.0,44,-99.99,,,0.00,,2013-01-25 00:02:00,
2013-01-24 18:12:00,40.0,20.0,30.38,NNW,347,3.0,-999.0,44,-99.99,,,0.00,,2013-01-25 00:12:00,
2013-01-24 18:22:00,40.0,19.0,30.37,NNE,27,3.0,-999.0,43,-99.99,,,0.00,,2013-01-25 00:22:00,
2013-01-24 18:32:00,39.0,19.0,30.38,NNE,26,2.0,-999.0,44,-99.99,,,0.00,,2013-01-25 00:32:00,
2013-01-24 18:42:00,39.0,19.0,30.38,NNE,26,2.0,-999.0,44,-99.99,,,0.00,,2013-01-25 00:42:00,
2013-01-24 18:52:00,39.0,19.0,30.38,North,8,3.0,-999.0,45,-99.99,,,0.00,,2013-01-25 00:52:00,
2013-01-24 19:01:00,38.0,19.0,30.39,NNE,12,2.0,-999.0,45,-99.99,,,0.00,,2013-01-25 01:01:00,
2013-01-24 19:12:00,38.0,19.0,30.39,NNE,12,2.0,-999.0,45,-99.99,,,0.00,,2013-01-25 01:12:00,
2013-01-24 19:22:00,38.0,19.0,30.39,NNE,17,2.0,-999.0,45,-99.99,,,0.00,,2013-01-25 01:22:00,
2013-01-24 19:32:00,38.0,19.0,30.38,NNE,21,1.0,-999.0,45,-99.99,,,0.00,,2013-01-25 01:32:00,
2013-01-24 19:42:00,38.0,19.0,30.38,NNE,21,1.0,-999.0,45,-99.99,,,0.00,,2013-01-25 01:42:00,
2013-01-24 19:52:00,37.0,18.0,30.37,NE,45,1.0,-999.0,46,-99.99,,,0.00,,2013-01-25 01:52:00,
2013-01-24 20:02:00,37.0,18.0,30.37,NNE,16,1.0,-999.0,46,-99.99,,,0.00,,2013-01-25 02:02:00,
2013-01-24 20:11:00,37.0,18.0,30.37,NNE,16,1.0,-999.0,46,-99.99,,,0.00,,2013-01-25 02:11:00,
2013-01-24 20:22:00,37.0,19.0,30.38,NNE,16,1.0,-999.0,47,-99.99,,,0.00,,2013-01-25 02:22:00,
2013-01-24 20:32:00,37.0,19.0,30.37,NNE,16,0.0,-999.0,48,-99.99,,,0.00,,2013-01-25 02:32:00,
2013-01-24 20:42:00,37.0,19.0,30.37,NNE,16,0.0,-999.0,48,-99.99,,,0.00,,2013-01-25 02:42:00,
2013-01-24 20:53:00,37.0,20.0,30.37,NNE,16,0.0,-999.0,49,-99.99,,,0.00,,2013-01-25 02:53:00,
2013-01-24 21:02:00,37.0,19.0,30.37,NNE,16,0.0,-999.0,47,-99.99,,,0.00,,2013-01-25 03:02:00,
2013-01-24 21:12:00,36.0,20.0,30.35,NNE,16,0.0,-999.0,51,-99.99,,,0.00,,2013-01-25 03:12:00,
2013-01-24 21:22:00,36.0,20.0,30.35,NNE,16,0.0,-999.0,51,-99.99,,,0.00,,2013-01-25 03:22:00,
2013-01-24 21:33:00,35.0,20.0,30.36,NNE,16,0.0,-999.0,53,-99.99,,,0.00,,2013-01-25 03:33:00,
2013-01-24 21:41:00,35.0,20.0,30.36,NNE,16,0.0,-999.0,53,-99.99,,,0.00,,2013-01-25 03:41:00,
2013-01-24 21:52:00,36.0,21.0,30.35,ENE,77,0.0,-999.0,54,-99.99,,,0.00,,2013-01-25 03:52:00,
2013-01-24 22:02:00,35.0,21.0,30.35,ENE,77,0.0,-999.0,56,-99.99,,,0.00,,2013-01-25 04:02:00,
2013-01-24 22:12:00,35.0,21.0,30.35,ENE,77,0.0,-999.0,56,-99.99,,,0.00,,2013-01-25 04:12:00,
2013-01-24 22:22:00,36.0,21.0,30.35,East,91,0.0,-999.0,55,-99.99,,,0.00,,2013-01-25 04:22:00,
2013-01-24 22:32:00,37.0,22.0,30.36,ESE,117,0.0,-999.0,55,-99.99,,,0.00,,2013-01-25 04:32:00,
2013-01-24 22:41:00,37.0,22.0,30.36,ESE,117,0.0,-999.0,55,-99.99,,,0.00,,2013-01-25 04:41:00,
2013-01-24 22:51:00,38.0,21.0,30.35,ENE,61,2.0,-999.0,50,-99.99,,,0.00,,2013-01-25 04:51:00,
2013-01-24 23:03:00,39.0,20.0,30.35,ESE,108,4.0,-999.0,47,-99.99,,,0.00,,2013-01-25 05:03:00,
2013-01-24 23:12:00,39.0,20.0,30.34,ESE,119,6.0,-999.0,46,-99.99,,,0.00,,2013-01-25 05:12:00,
2013-01-24 23:22:00,39.0,20.0,30.34,ESE,119,6.0,-999.0,46,-99.99,,,0.00,,2013-01-25 05:22:00,
2013-01-24 23:32:00,39.0,19.0,30.33,ESE,120,3.0,-999.0,45,-99.99,,,0.00,,2013-01-25 05:32:00,
2013-01-24 23:43:00,39.0,19.0,30.33,ESE,120,3.0,-999.0,45,-99.99,,,0.00,,2013-01-25 05:43:00,
2013-01-24 23:52:00,39.0,19.0,30.32,ESE,107,4.0,-999.0,44,-99.99,,,0.00,,2013-01-25 05:52:00,